Time;durP1;ratioP1;P1;durP2;ratioP2;P2;SDS_P1;SDS_P2;PMS_P1;PMS_P2;Temp;Humidity;BMP_temperature;BMP_pressure;BME280_temperature;BME280_humidity;BME280_pressure;Samples;Min_cycle;Max_cycle;Signal;HPM_P1;HPM_P2
2022/04/12 00:01:26;;;;;;;14.40;8.27;;;;;;;;;;4978244;28;20066;-66
2022/04/12 00:04:01;;;;;;;10.38;6.68;;;;;;;;;;4977949;28;20381;-66
2022/04/12 00:06:36;;;;;;;8.68;6.90;;;;;;;;;;4977205;28;20465;-65
2022/04/12 00:09:07;;;;;;;12.43;7.55;;;;;;;;;;4964189;28;20050;-66
2022/04/12 00:11:37;;;;;;;7.72;6.28;;;;;;;;;;4960833;28;20130;-66
2022/04/12 00:14:08;;;;;;;11.60;6.10;;;;;;;;;;4959334;28;20052;-66
2022/04/12 00:16:41;;;;;;;8.63;7.43;;;;;;;;;;4962187;28;20055;-66
2022/04/12 00:19:13;;;;;;;15.27;6.60;;;;;;;;;;4977616;28;20106;-65
2022/04/12 00:21:45;;;;;;;7.40;6.25;;;;;;;;;;4977521;28;20050;-66
2022/04/12 00:24:17;;;;;;;13.25;7.25;;;;;;;;;;4956991;29;20055;-66
2022/04/12 00:26:49;;;;;;;7.10;6.20;;;;;;;;;;4958301;28;20063;-66
2022/04/12 00:29:20;;;;;;;8.80;6.00;;;;;;;;;;4941475;29;20047;-66
2022/04/12 00:31:52;;;;;;;10.43;6.05;;;;;;;;;;4958105;28;20059;-66
2022/04/12 00:34:26;;;;;;;9.07;6.82;;;;;;;;;;4958337;28;20394;-66
2022/04/12 00:36:56;;;;;;;9.50;6.90;;;;;;;;;;4958003;29;20075;-66
2022/04/12 00:39:27;;;;;;;11.27;8.18;;;;;;;;;;4958718;28;20407;-66
2022/04/12 00:41:59;;;;;;;12.13;5.50;;;;;;;;;;4958331;28;20459;-66
2022/04/12 00:44:29;;;;;;;7.95;6.82;;;;;;;;;;4958812;28;20051;-66
2022/04/12 00:47:04;;;;;;;11.95;7.25;;;;;;;;;;4957494;28;20506;-66
2022/04/12 00:49:37;;;;;;;7.70;6.72;;;;;;;;;;4973313;28;20046;-66
2022/04/12 00:52:14;;;;;;;10.38;7.00;;;;;;;;;;4977793;28;20103;-66
2022/04/12 00:54:49;;;;;;;9.52;6.32;;;;;;;;;;4960754;28;20122;-66
2022/04/12 00:57:25;;;;;;;12.70;5.70;;;;;;;;;;4966306;28;20048;-66
2022/04/12 01:00:00;;;;;;;6.95;5.93;;;;;;;;;;4957494;28;20051;-65
2022/04/12 01:02:31;;;;;;;12.68;6.43;;;;;;;;;;4975906;28;20070;-66
2022/04/12 01:05:10;;;;;;;10.23;7.20;;;;;;;;;;4976906;28;20524;-65
2022/04/12 01:07:47;;;;;;;7.40;5.75;;;;;;;;;;4960812;28;20051;-66
2022/04/12 01:10:23;;;;;;;7.53;6.50;;;;;;;;;;4976561;28;20074;-66
2022/04/12 01:12:57;;;;;;;10.40;6.63;;;;;;;;;;4977335;28;20510;-66
2022/04/12 01:15:32;;;;;;;7.85;6.47;;;;;;;;;;4960196;28;20042;-65
2022/04/12 01:18:11;;;;;;;7.75;6.13;;;;;;;;;;4957783;28;20058;-66
2022/04/12 01:20:47;;;;;;;7.57;6.45;;;;;;;;;;4957669;28;20047;-66
2022/04/12 01:23:34;;;;;;;7.22;6.30;;;;;;;;;;4958227;28;20099;-66
2022/04/12 01:26:11;;;;;;;6.00;5.22;;;;;;;;;;4957623;28;20513;-65
2022/04/12 01:28:49;;;;;;;5.75;5.25;;;;;;;;;;4957995;28;20051;-65
2022/04/12 01:31:27;;;;;;;7.32;5.88;;;;;;;;;;4957542;28;20055;-65
2022/04/12 01:34:03;;;;;;;7.45;5.25;;;;;;;;;;4957743;28;20090;-65
2022/04/12 01:36:34;;;;;;;8.23;5.82;;;;;;;;;;4956716;28;20047;-65
2022/04/12 01:39:06;;;;;;;6.97;6.28;;;;;;;;;;4957265;28;20486;-65
2022/04/12 01:41:39;;;;;;;8.13;5.80;;;;;;;;;;4940597;29;20189;-65
2022/04/12 01:44:11;;;;;;;8.65;5.45;;;;;;;;;;4957353;28;20058;-65
2022/04/12 01:46:44;;;;;;;7.38;5.07;;;;;;;;;;4956338;28;20566;-65
2022/04/12 01:49:18;;;;;;;16.52;6.38;;;;;;;;;;4956410;28;20054;-65
2022/04/12 01:51:56;;;;;;;5.95;4.90;;;;;;;;;;4956364;28;20046;-65
2022/04/12 01:54:34;;;;;;;5.80;4.50;;;;;;;;;;4955842;28;20043;-65
2022/04/12 01:57:13;;;;;;;6.80;4.90;;;;;;;;;;4955918;28;20075;-65
2022/04/12 01:59:53;;;;;;;7.47;5.82;;;;;;;;;;4956198;28;20384;-66
2022/04/12 02:02:29;;;;;;;13.80;4.72;;;;;;;;;;4956905;28;20043;-66
2022/04/12 02:05:10;;;;;;;9.68;4.88;;;;;;;;;;4957729;28;20534;-66
2022/04/12 02:07:46;;;;;;;7.75;5.05;;;;;;;;;;4957190;28;20435;-66
2022/04/12 02:10:24;;;;;;;7.60;5.40;;;;;;;;;;4957000;28;20048;-66
2022/04/12 02:13:05;;;;;;;7.53;4.93;;;;;;;;;;4956558;28;20051;-67
2022/04/12 02:15:43;;;;;;;7.82;5.10;;;;;;;;;;4956862;28;20103;-67
2022/04/12 02:18:18;;;;;;;8.85;4.88;;;;;;;;;;4956490;28;20499;-67
2022/04/12 02:20:52;;;;;;;7.80;6.32;;;;;;;;;;4957046;28;20466;-64
2022/04/12 02:23:23;;;;;;;9.70;5.35;;;;;;;;;;4957350;28;20051;-66
2022/04/12 02:25:56;;;;;;;14.70;5.95;;;;;;;;;;4957268;28;20134;-67
2022/04/12 02:28:27;;;;;;;8.45;4.97;;;;;;;;;;4957040;28;20051;-65
2022/04/12 02:31:09;;;;;;;6.10;5.05;;;;;;;;;;4956422;28;20575;-65
2022/04/12 02:33:51;;;;;;;6.38;5.22;;;;;;;;;;4956306;28;20077;-66
2022/04/12 02:36:24;;;;;;;6.38;4.85;;;;;;;;;;4956009;28;20043;-67
2022/04/12 02:39:00;;;;;;;7.13;6.07;;;;;;;;;;4956397;28;20062;-67
2022/04/12 02:41:36;;;;;;;;;;;;;;;;;;4970946;28;20055;-64
2022/04/12 02:44:13;;;;;;;9.27;4.97;;;;;;;;;;4974846;28;19929;-64
2022/04/12 02:46:53;;;;;;;4.75;4.25;;;;;;;;;;4974452;28;20510;-64
2022/04/12 02:49:28;;;;;;;5.25;3.53;;;;;;;;;;4975162;28;20410;-66
2022/04/12 02:52:00;;;;;;;9.43;6.22;;;;;;;;;;4975880;28;20074;-66
2022/04/12 02:54:34;;;;;;;9.57;5.63;;;;;;;;;;4964543;28;20094;-66
2022/04/12 02:57:08;;;;;;;5.30;3.78;;;;;;;;;;4956121;28;20105;-66
2022/04/12 02:59:37;;;;;;;4.85;3.88;;;;;;;;;;4957864;28;20134;-66
2022/04/12 03:02:07;;;;;;;6.03;4.32;;;;;;;;;;4959813;28;20101;-66
2022/04/12 03:04:42;;;;;;;6.05;4.75;;;;;;;;;;4960110;29;20503;-66
2022/04/12 03:07:12;;;;;;;10.82;4.45;;;;;;;;;;4960527;28;20502;-66
2022/04/12 03:09:41;;;;;;;8.23;6.38;;;;;;;;;;4959874;28;20087;-66
2022/04/12 03:12:10;;;;;;;6.88;5.30;;;;;;;;;;4959590;28;20110;-66
2022/04/12 03:14:39;;;;;;;5.72;5.07;;;;;;;;;;4960133;28;20461;-66
2022/04/12 03:17:08;;;;;;;5.75;4.65;;;;;;;;;;4959274;28;20618;-66
2022/04/12 03:19:36;;;;;;;5.82;4.68;;;;;;;;;;4959836;28;20054;-66
2022/04/12 03:22:07;;;;;;;5.63;5.00;;;;;;;;;;4975390;28;20059;-66
2022/04/12 03:24:36;;;;;;;6.15;4.47;;;;;;;;;;4978905;28;20393;-66
2022/04/12 03:27:05;;;;;;;12.88;5.55;;;;;;;;;;4978835;28;20106;-66
2022/04/12 03:29:34;;;;;;;6.80;5.65;;;;;;;;;;4978407;28;20051;-66
2022/04/12 03:32:03;;;;;;;5.57;5.07;;;;;;;;;;4959494;28;20142;-64
2022/04/12 03:34:32;;;;;;;7.20;4.18;;;;;;;;;;4959126;29;20055;-64
2022/04/12 03:37:00;;;;;;;7.22;6.07;;;;;;;;;;4974275;28;20067;-64
2022/04/12 03:39:30;;;;;;;5.00;4.60;;;;;;;;;;4978412;28;20482;-64
2022/04/12 03:42:00;;;;;;;6.68;5.13;;;;;;;;;;4979452;28;20065;-65
2022/04/12 03:44:28;;;;;;;7.53;5.82;;;;;;;;;;4978383;28;20047;-65
2022/04/12 03:46:58;;;;;;;13.27;5.85;;;;;;;;;;4978594;28;20085;-64
2022/04/12 03:49:27;;;;;;;5.50;4.95;;;;;;;;;;4974944;28;20113;-64
2022/04/12 03:51:57;;;;;;;5.70;5.20;;;;;;;;;;4967428;28;20106;-64
2022/04/12 03:54:25;;;;;;;8.40;4.97;;;;;;;;;;4963204;28;20506;-65
2022/04/12 03:56:55;;;;;;;6.45;5.45;;;;;;;;;;4963571;28;20122;-65
2022/04/12 03:59:24;;;;;;;6.28;4.78;;;;;;;;;;4964293;28;20047;-63
2022/04/12 04:01:53;;;;;;;6.80;5.40;;;;;;;;;;4960443;28;20134;-65
2022/04/12 04:04:22;;;;;;;8.40;6.20;;;;;;;;;;4963900;28;20055;-64
2022/04/12 04:06:51;;;;;;;7.53;4.90;;;;;;;;;;4961531;28;20553;-64
2022/04/12 04:09:21;;;;;;;7.22;5.28;;;;;;;;;;4965025;28;20506;-64
2022/04/12 04:11:51;;;;;;;7.35;5.25;;;;;;;;;;4960352;28;20052;-64
2022/04/12 04:14:22;;;;;;;9.30;5.53;;;;;;;;;;4963681;28;20055;-64
2022/04/12 04:16:52;;;;;;;7.55;4.88;;;;;;;;;;4965479;28;20082;-64
2022/04/12 04:19:20;;;;;;;4.88;3.80;;;;;;;;;;4961057;28;20047;-65
2022/04/12 04:21:48;;;;;;;7.40;3.90;;;;;;;;;;4958929;28;20051;-64
2022/04/12 04:24:18;;;;;;;6.13;4.68;;;;;;;;;;4961392;28;20055;-64
2022/04/12 04:26:55;;;;;;;4.97;4.25;;;;;;;;;;4961578;28;20071;-64
2022/04/12 04:29:33;;;;;;;6.93;5.05;;;;;;;;;;4961084;28;20602;-64
2022/04/12 04:32:09;;;;;;;6.22;3.95;;;;;;;;;;4961014;28;20035;-64
2022/04/12 04:34:44;;;;;;;3.92;3.50;;;;;;;;;;4961577;28;20047;-64
2022/04/12 04:37:18;;;;;;;3.00;2.50;;;;;;;;;;4969547;28;20051;-64
2022/04/12 04:39:48;;;;;;;6.25;2.95;;;;;;;;;;4965577;28;20388;-64
2022/04/12 04:42:23;;;;;;;4.75;3.72;;;;;;;;;;4967076;28;20045;-64
2022/04/12 04:44:54;;;;;;;4.20;2.60;;;;;;;;;;4971729;28;20050;-64
2022/04/12 04:47:24;;;;;;;5.35;2.55;;;;;;;;;;4965570;28;20047;-63
2022/04/12 04:49:54;;;;;;;3.85;3.03;;;;;;;;;;4970478;28;20039;-64
2022/04/12 04:52:25;;;;;;;6.78;2.95;;;;;;;;;;4972127;28;20130;-63
2022/04/12 04:54:58;;;;;;;6.57;3.00;;;;;;;;;;4971444;28;20564;-65
2022/04/12 04:57:31;;;;;;;3.72;2.42;;;;;;;;;;4971209;28;20043;-66
2022/04/12 05:00:07;;;;;;;7.15;3.45;;;;;;;;;;4958914;28;20043;-65
2022/04/12 05:02:40;;;;;;;6.43;2.42;;;;;;;;;;4958517;28;20051;-64
2022/04/12 05:05:10;;;;;;;3.72;3.35;;;;;;;;;;4968841;28;20046;-64
2022/04/12 05:07:46;;;;;;;3.70;3.20;;;;;;;;;;4963854;28;20065;-64
2022/04/12 05:10:39;;;;;;;6.75;3.92;;;;;;;;;;4967540;28;20047;-64
2022/04/12 05:13:16;;;;;;;3.92;2.97;;;;;;;;;;4962094;28;20046;-66
2022/04/12 05:15:51;;;;;;;5.57;3.78;;;;;;;;;;4962969;28;20043;-64
2022/04/12 05:18:27;;;;;;;6.18;3.35;;;;;;;;;;4967461;28;20393;-63
2022/04/12 05:20:59;;;;;;;3.15;2.67;;;;;;;;;;4963090;28;20494;-63
2022/04/12 05:23:32;;;;;;;3.97;2.60;;;;;;;;;;4961165;28;20043;-64
2022/04/12 05:26:05;;;;;;;6.03;3.30;;;;;;;;;;4962127;28;20055;-63
2022/04/12 05:28:36;;;;;;;6.43;3.90;;;;;;;;;;4962427;28;20039;-63
2022/04/12 05:31:09;;;;;;;8.20;2.88;;;;;;;;;;4960459;28;20043;-64
2022/04/12 05:33:47;;;;;;;5.32;3.30;;;;;;;;;;4963647;28;20043;-64
2022/04/12 05:36:19;;;;;;;4.97;2.80;;;;;;;;;;4966770;28;20051;-64
2022/04/12 05:38:52;;;;;;;8.23;5.25;;;;;;;;;;4965024;28;20069;-63
2022/04/12 05:41:24;;;;;;;9.07;3.92;;;;;;;;;;4968576;28;20492;-64
2022/04/12 05:43:57;;;;;;;7.93;3.85;;;;;;;;;;4966861;28;20051;-64
2022/04/12 05:46:28;;;;;;;6.82;2.95;;;;;;;;;;4965046;28;20062;-62
2022/04/12 05:48:59;;;;;;;10.27;3.88;;;;;;;;;;4959524;28;20494;-63
2022/04/12 05:51:29;;;;;;;7.13;3.38;;;;;;;;;;4962137;28;20098;-62
2022/04/12 05:54:01;;;;;;;8.05;3.35;;;;;;;;;;4959484;28;20059;-64
2022/04/12 05:56:33;;;;;;;7.70;3.50;;;;;;;;;;4967408;28;20047;-63
2022/04/12 05:59:06;;;;;;;6.25;3.58;;;;;;;;;;4946162;29;20073;-62
2022/04/12 06:01:35;;;;;;;9.07;3.60;;;;;;;;;;4964482;28;20129;-63
2022/04/12 06:04:07;;;;;;;18.17;4.78;;;;;;;;;;4963962;28;20055;-63
2022/04/12 06:06:38;;;;;;;6.47;4.32;;;;;;;;;;4966847;28;20046;-62
2022/04/12 06:09:07;;;;;;;13.85;5.75;;;;;;;;;;4963490;28;20058;-62
2022/04/12 06:11:36;;;;;;;12.13;6.07;;;;;;;;;;4975000;28;20521;-64
2022/04/12 06:14:06;;;;;;;5.72;4.70;;;;;;;;;;4976061;28;20090;-62
2022/04/12 06:16:35;;;;;;;11.85;5.07;;;;;;;;;;4956798;28;20494;-63
2022/04/12 06:19:05;;;;;;;8.80;4.10;;;;;;;;;;4957210;28;20546;-62
2022/04/12 06:21:34;;;;;;;5.93;4.20;;;;;;;;;;4956714;28;20067;-62
2022/04/12 06:24:04;;;;;;;5.80;4.18;;;;;;;;;;4957138;28;20059;-63
2022/04/12 06:26:33;;;;;;;5.47;4.82;;;;;;;;;;4971263;28;20058;-65
2022/04/12 06:29:02;;;;;;;5.97;4.70;;;;;;;;;;4975539;28;20102;-64
2022/04/12 06:31:32;;;;;;;9.32;4.40;;;;;;;;;;4966613;28;20109;-64
2022/04/12 06:34:02;;;;;;;7.03;4.20;;;;;;;;;;4962870;28;20312;-64
2022/04/12 06:36:31;;;;;;;5.90;4.50;;;;;;;;;;4956549;28;20047;-61
2022/04/12 06:39:00;;;;;;;8.43;4.32;;;;;;;;;;4936905;29;20051;-61
2022/04/12 06:41:29;;;;;;;11.23;4.47;;;;;;;;;;4936146;29;20134;-62
2022/04/12 06:43:58;;;;;;;8.50;4.80;;;;;;;;;;4940424;29;20063;-61
2022/04/12 06:46:28;;;;;;;5.68;4.57;;;;;;;;;;4937261;28;20044;-62
2022/04/12 06:48:58;;;;;;;4.95;3.58;;;;;;;;;;4937542;29;20059;-61
2022/04/12 06:51:27;;;;;;;10.70;4.93;;;;;;;;;;4936997;29;20055;-62
2022/04/12 06:53:57;;;;;;;8.60;5.60;;;;;;;;;;4939097;29;20056;-62
2022/04/12 06:56:30;;;;;;;14.27;6.18;;;;;;;;;;4949860;29;20113;-62
2022/04/12 06:59:01;;;;;;;14.63;4.97;;;;;;;;;;4947531;29;20044;-62
2022/04/12 07:01:29;;;;;;;11.05;5.68;;;;;;;;;;4939578;29;20040;-62
2022/04/12 07:03:58;;;;;;;13.23;5.07;;;;;;;;;;4935132;29;20086;-62
2022/04/12 07:06:28;;;;;;;9.88;5.72;;;;;;;;;;4935725;29;20055;-62
2022/04/12 07:08:58;;;;;;;9.93;5.90;;;;;;;;;;4936557;29;20047;-62
2022/04/12 07:11:27;;;;;;;8.90;5.25;;;;;;;;;;4937018;29;20051;-62
2022/04/12 07:13:57;;;;;;;6.05;4.47;;;;;;;;;;4937609;29;20079;-63
2022/04/12 07:16:26;;;;;;;7.68;4.35;;;;;;;;;;4936381;28;20062;-63
2022/04/12 07:18:55;;;;;;;4.57;3.53;;;;;;;;;;4936995;28;20062;-63
2022/04/12 07:21:25;;;;;;;8.40;4.40;;;;;;;;;;4936644;29;20059;-65
2022/04/12 07:23:54;;;;;;;8.07;3.13;;;;;;;;;;4936919;29;20051;-68
2022/04/12 07:26:24;;;;;;;5.97;2.72;;;;;;;;;;4945023;29;20055;-61
2022/04/12 07:28:52;;;;;;;5.60;2.97;;;;;;;;;;4937704;29;20147;-62
2022/04/12 07:31:21;;;;;;;6.47;2.80;;;;;;;;;;4941820;28;20460;-61
2022/04/12 07:33:51;;;;;;;8.00;4.68;;;;;;;;;;4936914;29;20048;-62
2022/04/12 07:36:20;;;;;;;9.00;3.90;;;;;;;;;;4937258;29;20062;-61
2022/04/12 07:38:49;;;;;;;9.30;3.42;;;;;;;;;;4954571;28;20475;-61
2022/04/12 07:41:19;;;;;;;6.80;4.47;;;;;;;;;;4955854;28;20090;-62
2022/04/12 07:43:49;;;;;;;4.55;3.53;;;;;;;;;;4955800;28;20062;-62
2022/04/12 07:46:19;;;;;;;10.95;4.78;;;;;;;;;;4958390;29;20062;-62
2022/04/12 07:48:50;;;;;;;5.47;4.05;;;;;;;;;;4959154;29;20051;-62
2022/04/12 07:51:18;;;;;;;9.43;3.97;;;;;;;;;;4959440;29;20058;-62
2022/04/12 07:53:48;;;;;;;10.20;5.25;;;;;;;;;;4958754;29;20126;-62
2022/04/12 07:56:17;;;;;;;17.02;15.20;;;;;;;;;;4961485;28;20447;-62
2022/04/12 07:58:46;;;;;;;9.50;4.20;;;;;;;;;;4959506;28;20151;-62
2022/04/12 08:01:15;;;;;;;5.97;3.83;;;;;;;;;;4965755;28;20182;-62
2022/04/12 08:03:47;;;;;;;7.50;4.10;;;;;;;;;;4959737;28;20058;-62
2022/04/12 08:06:16;;;;;;;14.23;4.20;;;;;;;;;;4958358;28;20055;-62
2022/04/12 08:08:45;;;;;;;7.05;4.07;;;;;;;;;;4958183;29;20055;-62
2022/04/12 08:11:15;;;;;;;6.65;3.97;;;;;;;;;;4958220;29;20054;-62
2022/04/12 08:13:45;;;;;;;10.10;3.92;;;;;;;;;;4958642;29;20051;-62
2022/04/12 08:16:15;;;;;;;7.53;4.00;;;;;;;;;;4958328;29;20055;-62
2022/04/12 08:18:47;;;;;;;7.45;4.47;;;;;;;;;;4958417;29;20054;-62
2022/04/12 08:21:28;;;;;;;12.98;4.78;;;;;;;;;;4958423;29;20142;-62
2022/04/12 08:23:58;;;;;;;8.23;5.03;;;;;;;;;;4958183;28;20074;-63
2022/04/12 08:26:28;;;;;;;7.85;4.72;;;;;;;;;;4961955;28;20047;-62
2022/04/12 08:28:56;;;;;;;9.32;5.20;;;;;;;;;;4958628;28;20051;-62
2022/04/12 08:31:26;;;;;;;7.82;5.20;;;;;;;;;;4972350;28;20517;-62
2022/04/12 08:33:55;;;;;;;9.30;5.72;;;;;;;;;;4966419;28;20051;-62
2022/04/12 08:36:25;;;;;;;6.43;4.65;;;;;;;;;;4972774;28;20055;-62
2022/04/12 08:38:55;;;;;;;7.25;5.88;;;;;;;;;;4976618;28;20498;-62
2022/04/12 08:41:24;;;;;;;6.97;5.47;;;;;;;;;;4973566;28;20427;-62
2022/04/12 08:43:58;;;;;;;9.38;5.50;;;;;;;;;;4958080;28;20058;-61
2022/04/12 08:46:28;;;;;;;9.32;5.10;;;;;;;;;;4958001;28;20087;-62
2022/04/12 08:48:58;;;;;;;7.70;5.10;;;;;;;;;;4958439;28;20078;-62
2022/04/12 08:51:28;;;;;;;7.38;5.15;;;;;;;;;;4959326;28;20051;-62
2022/04/12 08:53:58;;;;;;;7.28;5.82;;;;;;;;;;4958216;28;20106;-62
2022/04/12 08:56:29;;;;;;;10.32;6.93;;;;;;;;;;4963797;28;20061;-62
2022/04/12 08:58:58;;;;;;;11.23;5.90;;;;;;;;;;4969732;28;20055;-62
2022/04/12 09:01:43;;;;;;;11.10;6.63;;;;;;;;;;4976898;28;20058;-62
2022/04/12 09:04:13;;;;;;;12.48;6.68;;;;;;;;;;4976751;28;20061;-62
2022/04/12 09:06:49;;;;;;;12.75;6.70;;;;;;;;;;4976229;28;20057;-63
2022/04/12 09:09:20;;;;;;;10.63;6.45;;;;;;;;;;4976081;28;20502;-63
2022/04/12 09:11:57;;;;;;;13.63;7.85;;;;;;;;;;4976274;28;20137;-64
2022/04/12 09:14:46;;;;;;;10.43;7.25;;;;;;;;;;4975869;28;20520;-63
2022/04/12 09:17:19;;;;;;;8.32;6.45;;;;;;;;;;4976317;28;20461;-63
2022/04/12 09:19:51;;;;;;;10.57;7.20;;;;;;;;;;4959473;28;20054;-63
2022/04/12 09:22:24;;;;;;;7.35;6.20;;;;;;;;;;4957418;28;20051;-63
2022/04/12 09:24:56;;;;;;;8.90;7.47;;;;;;;;;;4958009;28;20057;-63
2022/04/12 09:27:27;;;;;;;10.25;7.63;;;;;;;;;;4970410;28;20058;-63
2022/04/12 09:30:17;;;;;;;8.82;7.25;;;;;;;;;;4976397;28;20054;-64
2022/04/12 09:32:48;;;;;;;11.35;7.18;;;;;;;;;;4954628;28;20469;-64
2022/04/12 09:35:16;;;;;;;10.05;7.85;;;;;;;;;;4940286;29;20051;-63
2022/04/12 09:37:46;;;;;;;9.30;7.80;;;;;;;;;;4956919;28;20067;-63
2022/04/12 09:40:17;;;;;;;8.05;7.00;;;;;;;;;;4957722;28;20187;-63
2022/04/12 09:42:57;;;;;;;12.35;8.65;;;;;;;;;;4958185;28;20051;-63
2022/04/12 09:45:46;;;;;;;7.85;6.88;;;;;;;;;;4956868;28;20102;-63
2022/04/12 09:48:16;;;;;;;12.20;7.28;;;;;;;;;;4955916;28;20102;-62
2022/04/12 09:51:05;;;;;;;9.93;8.02;;;;;;;;;;4957313;28;20513;-64
2022/04/12 09:53:39;;;;;;;11.77;7.25;;;;;;;;;;4957653;28;20059;-63
2022/04/12 09:56:26;;;;;;;10.38;7.20;;;;;;;;;;4961944;28;20040;-63
2022/04/12 09:58:57;;;;;;;10.55;6.60;;;;;;;;;;4956655;28;20047;-63
2022/04/12 10:01:26;;;;;;;10.90;7.22;;;;;;;;;;4971064;28;20051;-63
2022/04/12 10:03:59;;;;;;;13.50;8.20;;;;;;;;;;4967817;28;20142;-63
2022/04/12 10:06:28;;;;;;;;;;;;;;;;;;4961957;28;20137;-63
2022/04/12 10:09:00;;;;;;;10.07;7.10;;;;;;;;;;4981450;28;20038;-62
2022/04/12 10:11:30;;;;;;;11.23;9.27;;;;;;;;;;4978131;28;20053;-62
2022/04/12 10:14:01;;;;;;;9.93;7.28;;;;;;;;;;4970651;28;20054;-64
2022/04/12 10:16:30;;;;;;;11.38;6.95;;;;;;;;;;4954546;28;20499;-64
2022/04/12 10:19:00;;;;;;;13.55;8.32;;;;;;;;;;4975809;28;20042;-64
2022/04/12 10:21:28;;;;;;;10.80;7.72;;;;;;;;;;4978836;28;20057;-64
2022/04/12 10:23:59;;;;;;;8.80;7.65;;;;;;;;;;4977882;28;20065;-63
2022/04/12 10:26:28;;;;;;;9.30;6.80;;;;;;;;;;4978920;28;20055;-64
2022/04/12 10:29:04;;;;;;;7.63;6.03;;;;;;;;;;4954819;28;20054;-64
2022/04/12 10:31:33;;;;;;;7.70;5.72;;;;;;;;;;4944921;28;20075;-63
2022/04/12 10:34:30;;;;;;;7.72;5.13;;;;;;;;;;4962272;28;20051;-64
2022/04/12 10:37:08;;;;;;;8.35;5.97;;;;;;;;;;4970911;28;20065;-65
2022/04/12 10:40:00;;;;;;;10.40;6.80;;;;;;;;;;4956312;28;20075;-64
2022/04/12 10:42:33;;;;;;;9.93;6.73;;;;;;;;;;4962577;28;20065;-63
2022/04/12 10:45:04;;;;;;;6.93;5.83;;;;;;;;;;4964560;28;20074;-63
2022/04/12 10:47:36;;;;;;;11.88;5.95;;;;;;;;;;4959582;28;20043;-63
2022/04/12 10:50:07;;;;;;;7.07;5.78;;;;;;;;;;4974860;28;20113;-63
2022/04/12 10:52:41;;;;;;;13.05;5.15;;;;;;;;;;4975142;28;20055;-64
2022/04/12 10:55:37;;;;;;;7.72;4.88;;;;;;;;;;4962976;28;20051;-62
2022/04/12 10:58:30;;;;;;;8.60;5.80;;;;;;;;;;4954630;28;20387;-62
2022/04/12 11:01:00;;;;;;;10.38;4.93;;;;;;;;;;4957052;28;20067;-62
2022/04/12 11:03:41;;;;;;;9.38;6.32;;;;;;;;;;4957009;28;20051;-62
2022/04/12 11:06:14;;;;;;;7.07;4.82;;;;;;;;;;4965378;28;20078;-64
2022/04/12 11:08:49;;;;;;;6.65;4.35;;;;;;;;;;4953499;28;20055;-63
2022/04/12 11:11:28;;;;;;;13.20;5.00;;;;;;;;;;4963445;28;20059;-67
2022/04/12 11:14:25;;;;;;;9.27;6.10;;;;;;;;;;4954374;28;20495;-67
2022/04/12 11:17:00;;;;;;;7.35;5.63;;;;;;;;;;4963250;28;20510;-66
2022/04/12 11:20:00;;;;;;;8.52;5.90;;;;;;;;;;4970470;28;20055;-66
2022/04/12 11:22:43;;;;;;;12.10;6.45;;;;;;;;;;4901549;29;20578;-66
2022/04/12 11:25:14;;;;;;;6.70;6.00;;;;;;;;;;4975423;28;20054;-66
2022/04/12 11:27:44;;;;;;;11.27;7.20;;;;;;;;;;4959348;28;20063;-66
2022/04/12 11:30:14;;;;;;;13.18;7.35;;;;;;;;;;4963407;28;20046;-66
2022/04/12 11:32:42;;;;;;;11.57;6.03;;;;;;;;;;4959500;28;20071;-66
2022/04/12 11:35:11;;;;;;;6.95;6.25;;;;;;;;;;4962213;28;20047;-66
2022/04/12 11:37:42;;;;;;;6.78;5.25;;;;;;;;;;4959512;28;20091;-66
2022/04/12 11:40:13;;;;;;;8.27;4.95;;;;;;;;;;4964349;28;20051;-67
2022/04/12 11:42:43;;;;;;;8.43;3.88;;;;;;;;;;4977016;28;20521;-67
2022/04/12 11:45:12;;;;;;;6.03;4.53;;;;;;;;;;4972875;28;20122;-66
2022/04/12 11:47:44;;;;;;;8.13;5.72;;;;;;;;;;4939244;28;20055;-67
2022/04/12 11:50:18;;;;;;;6.97;6.28;;;;;;;;;;4882977;28;60098;-65
2022/04/12 11:52:48;;;;;;;8.65;5.60;;;;;;;;;;4920261;29;20066;-68
2022/04/12 11:55:17;;;;;;;9.82;6.22;;;;;;;;;;4920068;29;20460;-68
2022/04/12 11:57:49;;;;;;;7.78;6.88;;;;;;;;;;4918758;29;20048;-67
2022/04/12 12:00:18;;;;;;;12.38;7.00;;;;;;;;;;4906264;29;20413;-66
2022/04/12 12:02:51;;;;;;;12.75;7.00;;;;;;;;;;4903480;29;20056;-68
2022/04/12 12:05:21;;;;;;;11.13;7.43;;;;;;;;;;4905751;29;20055;-67
2022/04/12 12:08:18;;;;;;;13.32;7.95;;;;;;;;;;4903035;29;20056;-68
2022/04/12 12:10:51;;;;;;;10.70;9.60;;;;;;;;;;4913319;29;20052;-68
2022/04/12 12:13:25;;;;;;;10.00;8.35;;;;;;;;;;4913638;29;20397;-68
2022/04/12 12:15:52;;;;;;;13.73;9.20;;;;;;;;;;4920339;29;20079;-68
2022/04/12 12:18:21;;;;;;;15.93;9.35;;;;;;;;;;4920090;29;20056;-68
2022/04/12 12:20:51;;;;;;;10.82;8.25;;;;;;;;;;4919733;29;20488;-68
2022/04/12 12:23:21;;;;;;;13.40;8.48;;;;;;;;;;4917795;29;20571;-67
2022/04/12 12:25:51;;;;;;;9.25;7.43;;;;;;;;;;4918337;29;20052;-68
2022/04/12 12:28:25;;;;;;;13.38;9.00;;;;;;;;;;4918173;29;20127;-68
2022/04/12 12:31:03;;;;;;;13.38;9.73;;;;;;;;;;4911293;29;20057;-68
2022/04/12 12:33:45;;;;;;;11.15;9.70;;;;;;;;;;4900045;29;20049;-68
2022/04/12 12:36:20;;;;;;;11.93;10.75;;;;;;;;;;4911845;29;20064;-68
2022/04/12 12:38:51;;;;;;;12.45;11.25;;;;;;;;;;4918578;29;20150;-68
2022/04/12 12:41:24;;;;;;;14.95;10.50;;;;;;;;;;4922996;29;20115;-68
2022/04/12 12:43:57;;;;;;;13.07;11.37;;;;;;;;;;4926106;29;20116;-69
2022/04/12 12:46:27;;;;;;;11.52;10.32;;;;;;;;;;4932876;29;20078;-68
2022/04/12 12:49:12;;;;;;;12.05;9.40;;;;;;;;;;4937833;29;20055;-69
2022/04/12 12:51:41;;;;;;;13.73;9.85;;;;;;;;;;4932084;29;20062;-68
2022/04/12 12:54:18;;;;;;;16.25;10.13;;;;;;;;;;4938083;29;20523;-68
2022/04/12 12:56:48;;;;;;;16.15;9.98;;;;;;;;;;4938192;29;20514;-68
2022/04/12 12:59:19;;;;;;;12.77;9.90;;;;;;;;;;4936922;29;20056;-68
2022/04/12 13:01:53;;;;;;;14.88;10.68;;;;;;;;;;4923866;29;20059;-68
2022/04/12 13:04:31;;;;;;;12.20;10.38;;;;;;;;;;4918262;29;20396;-69
2022/04/12 13:07:09;;;;;;;11.88;10.45;;;;;;;;;;4919471;29;20056;-68
2022/04/12 13:09:41;;;;;;;15.20;10.15;;;;;;;;;;4937587;29;20462;-68
2022/04/12 13:12:12;;;;;;;13.63;11.27;;;;;;;;;;4920555;29;20083;-68
2022/04/12 13:14:44;;;;;;;13.85;12.23;;;;;;;;;;4919484;29;20056;-68
2022/04/12 13:17:15;;;;;;;15.75;13.80;;;;;;;;;;4919958;29;20056;-68
2022/04/12 13:19:45;;;;;;;19.40;13.88;;;;;;;;;;4927070;29;20055;-69
2022/04/12 13:22:15;;;;;;;16.52;13.65;;;;;;;;;;4919730;29;20107;-68
2022/04/12 13:24:44;;;;;;;16.83;12.45;;;;;;;;;;4918891;29;20059;-68
2022/04/12 13:27:14;;;;;;;17.70;13.50;;;;;;;;;;4919873;29;20055;-68
2022/04/12 13:29:42;;;;;;;19.65;13.00;;;;;;;;;;4919610;29;20048;-68
2022/04/12 13:32:10;;;;;;;15.50;11.35;;;;;;;;;;4925327;29;20044;-68
2022/04/12 13:34:40;;;;;;;14.55;11.73;;;;;;;;;;4926938;29;20138;-68
2022/04/12 13:37:10;;;;;;;14.30;12.13;;;;;;;;;;4935067;29;20059;-68
2022/04/12 13:39:38;;;;;;;17.63;12.55;;;;;;;;;;4924878;29;20080;-68
2022/04/12 13:42:07;;;;;;;15.85;14.00;;;;;;;;;;4919910;29;20103;-68
2022/04/12 13:44:37;;;;;;;16.55;12.25;;;;;;;;;;4918334;29;20074;-68
2022/04/12 13:47:07;;;;;;;15.57;12.93;;;;;;;;;;4919375;29;20079;-68
2022/04/12 13:49:36;;;;;;;22.08;14.75;;;;;;;;;;4918872;29;20056;-68
2022/04/12 13:52:05;;;;;;;18.38;13.85;;;;;;;;;;4918984;29;20118;-68
2022/04/12 13:54:34;;;;;;;17.45;12.35;;;;;;;;;;4918809;29;20056;-68
2022/04/12 13:57:08;;;;;;;19.27;12.98;;;;;;;;;;4918949;29;20055;-68
2022/04/12 13:59:38;;;;;;;;;;;;;;;;;;4919146;29;20072;-68
2022/04/12 14:02:06;;;;;;;16.98;13.02;;;;;;;;;;4925285;29;19927;-68
2022/04/12 14:04:36;;;;;;;16.10;13.02;;;;;;;;;;4918557;29;20044;-69
2022/04/12 14:07:06;;;;;;;14.40;12.35;;;;;;;;;;4933659;29;20423;-69
2022/04/12 14:09:35;;;;;;;14.65;12.77;;;;;;;;;;4927358;29;20048;-69
2022/04/12 14:12:05;;;;;;;19.17;14.80;;;;;;;;;;4919834;29;20086;-67
2022/04/12 14:14:35;;;;;;;17.70;14.73;;;;;;;;;;4936485;29;20115;-67
2022/04/12 14:17:05;;;;;;;17.20;13.32;;;;;;;;;;4936698;29;20059;-67
2022/04/12 14:19:34;;;;;;;16.73;13.80;;;;;;;;;;4936555;29;20048;-68
2022/04/12 14:22:07;;;;;;;19.58;13.07;;;;;;;;;;4936645;29;20517;-67
2022/04/12 14:24:36;;;;;;;15.57;12.88;;;;;;;;;;4936736;29;20055;-68
2022/04/12 14:27:06;;;;;;;17.60;13.55;;;;;;;;;;4936341;29;20051;-68
2022/04/12 14:29:35;;;;;;;14.57;12.32;;;;;;;;;;4936243;29;20055;-67
2022/04/12 14:32:06;;;;;;;17.08;13.48;;;;;;;;;;4920526;29;20495;-67
2022/04/12 14:34:36;;;;;;;14.13;11.25;;;;;;;;;;4917833;29;20052;-68
2022/04/12 14:37:05;;;;;;;12.05;10.68;;;;;;;;;;4918078;29;20135;-67
2022/04/12 14:39:35;;;;;;;14.23;11.45;;;;;;;;;;4925225;29;20055;-67
2022/04/12 14:42:08;;;;;;;;;;;;;;;;;;4925871;29;20047;-68
2022/04/12 14:44:38;;;;;;;15.00;11.82;;;;;;;;;;4931086;29;20005;-67
2022/04/12 14:47:09;;;;;;;14.35;11.73;;;;;;;;;;4936163;29;20128;-68
2022/04/12 14:49:39;;;;;;;12.40;10.65;;;;;;;;;;4900954;29;20381;-68
2022/04/12 14:52:09;;;;;;;12.57;10.77;;;;;;;;;;4935668;29;20043;-67
2022/04/12 14:54:38;;;;;;;14.63;11.70;;;;;;;;;;4938679;29;20055;-68
2022/04/12 14:57:07;;;;;;;15.40;12.68;;;;;;;;;;4939805;29;20051;-67
2022/04/12 14:59:37;;;;;;;18.77;11.90;;;;;;;;;;4940556;29;20051;-67
2022/04/12 15:02:07;;;;;;;17.50;12.32;;;;;;;;;;4920396;29;20056;-67
2022/04/12 15:04:35;;;;;;;18.08;13.00;;;;;;;;;;4922415;29;20060;-67
2022/04/12 15:07:04;;;;;;;15.60;13.05;;;;;;;;;;4921261;29;20545;-67